createdAt,value
2023-01-13T00:00:26.887Z,79.80
2023-01-13T00:03:16.804Z,80.10
2023-01-13T00:05:44.794Z,80.10
2023-01-13T00:08:13.375Z,80.50
2023-01-13T00:10:41.385Z,80.50
2023-01-13T00:13:10.242Z,80.40
2023-01-13T00:15:38.084Z,80.70
2023-01-13T00:18:06.869Z,80.60
2023-01-13T00:20:59.602Z,80.50
2023-01-13T00:23:31.280Z,80.60
2023-01-13T00:26:00.696Z,80.50
2023-01-13T00:28:29.139Z,80.50
2023-01-13T00:30:58.876Z,80.50
2023-01-13T00:33:27.194Z,80.50
2023-01-13T00:36:00.468Z,80.50
2023-01-13T00:38:30.573Z,80.50
2023-01-13T00:41:20.480Z,80.60
2023-01-13T00:43:49.543Z,80.60
2023-01-13T00:46:20.338Z,80.40
2023-01-13T00:48:48.906Z,80.60
2023-01-13T00:51:19.830Z,80.50
2023-01-13T00:53:51.166Z,80.30
2023-01-13T00:56:38.424Z,80.30
2023-01-13T00:59:11.630Z,80.40
2023-01-13T01:01:40.796Z,80.30
2023-01-13T01:04:09.232Z,80.30
2023-01-13T01:06:37.510Z,80.30
2023-01-13T01:09:06.762Z,80.30
2023-01-13T01:11:35.447Z,80.20
2023-01-13T01:14:04.494Z,80.20
2023-01-13T01:16:33.966Z,80.20
2023-01-13T01:19:02.856Z,80.20
2023-01-13T01:21:31.501Z,80.10
2023-01-13T01:24:03.278Z,79.90
2023-01-13T01:26:32.026Z,80.00
2023-01-13T01:29:02.700Z,79.90
2023-01-13T01:31:33.469Z,79.90
2023-01-13T01:34:01.752Z,80.00
2023-01-13T01:36:35.282Z,80.30
2023-01-13T01:39:08.187Z,80.20
2023-01-13T01:41:37.125Z,80.40
2023-01-13T01:44:25.972Z,80.50
2023-01-13T01:46:54.331Z,80.70
2023-01-13T01:49:32.820Z,80.70
2023-01-13T01:52:17.979Z,80.60
2023-01-13T01:54:55.605Z,80.70
2023-01-13T01:57:33.353Z,80.70
2023-01-13T02:00:02.602Z,80.70
2023-01-13T02:02:40.658Z,80.60
2023-01-13T02:05:09.469Z,80.60
2023-01-13T02:07:39.583Z,80.50
2023-01-13T02:10:10.796Z,80.70
2023-01-13T02:12:40.425Z,80.70
2023-01-13T02:15:11.015Z,80.70
2023-01-13T02:17:51.317Z,80.70
2023-01-13T02:20:22.820Z,80.70
2023-01-13T02:22:53.625Z,80.50
2023-01-13T02:25:49.190Z,80.50
2023-01-13T02:28:29.412Z,80.70
2023-01-13T02:31:26.804Z,80.70
2023-01-13T02:34:10.100Z,80.70
2023-01-13T02:36:54.787Z,80.60
2023-01-13T02:39:42.236Z,80.70
2023-01-13T02:42:44.750Z,80.70
2023-01-13T02:45:42.420Z,80.60
2023-01-13T02:48:13.237Z,80.60
2023-01-13T02:50:49.374Z,80.40
2023-01-13T02:53:36.366Z,80.40
2023-01-13T02:56:06.605Z,80.40
2023-01-13T02:58:39.658Z,80.40
2023-01-13T03:01:07.947Z,80.40
2023-01-13T03:03:36.897Z,80.40
2023-01-13T03:06:30.264Z,80.40
2023-01-13T03:09:27.528Z,80.50
2023-01-13T03:12:11.284Z,80.40
2023-01-13T03:14:57.689Z,80.40
2023-01-13T03:17:37.570Z,80.50
2023-01-13T03:20:26.053Z,80.50
2023-01-13T03:23:09.853Z,80.70
2023-01-13T03:25:44.167Z,80.70
2023-01-13T03:28:24.853Z,80.70
2023-01-13T03:30:59.523Z,80.90
2023-01-13T03:33:53.108Z,81.10
2023-01-13T03:36:26.273Z,81.20
2023-01-13T03:38:59.247Z,81.00
2023-01-13T03:41:34.069Z,81.10
2023-01-13T03:44:25.180Z,81.10
2023-01-13T03:47:22.440Z,81.10
2023-01-13T03:50:03.915Z,81.20
2023-01-13T03:52:44.090Z,81.00
2023-01-13T03:55:18.987Z,81.10
2023-01-13T03:58:05.672Z,81.00
2023-01-13T04:00:39.388Z,81.00
2023-01-13T04:03:21.146Z,81.10
2023-01-13T04:05:56.759Z,81.00
2023-01-13T04:08:28.958Z,81.00
2023-01-13T04:11:14.970Z,80.90
2023-01-13T04:13:45.647Z,81.00
2023-01-13T04:16:14.521Z,80.90
2023-01-13T04:18:42.712Z,81.00
2023-01-13T04:21:10.727Z,81.10
2023-01-13T04:23:39.459Z,81.10
2023-01-13T04:26:07.326Z,81.00
2023-01-13T04:28:35.715Z,81.10
2023-01-13T04:31:03.499Z,81.00
2023-01-13T04:33:31.681Z,81.00
2023-01-13T04:36:00.212Z,81.00
2023-01-13T04:38:29.204Z,80.90
2023-01-13T04:40:57.078Z,80.90
2023-01-13T04:43:25.503Z,80.80
2023-01-13T04:45:55.960Z,80.80
2023-01-13T04:48:24.473Z,80.80
2023-01-13T04:50:54.667Z,80.70
2023-01-13T04:53:22.944Z,80.70
2023-01-13T04:55:52.585Z,80.70
2023-01-13T04:58:21.367Z,80.70
2023-01-13T05:00:51.408Z,80.60
2023-01-13T05:03:21.702Z,80.60
2023-01-13T05:05:53.092Z,80.60
2023-01-13T05:08:21.241Z,80.50
2023-01-13T05:10:49.486Z,80.50
2023-01-13T05:13:35.960Z,80.40
2023-01-13T05:16:25.702Z,80.40
2023-01-13T05:18:54.404Z,80.40
2023-01-13T05:21:49.659Z,80.30
2023-01-13T05:24:36.833Z,80.30
2023-01-13T05:27:05.016Z,80.30
2023-01-13T05:29:33.739Z,80.20
2023-01-13T05:32:04.846Z,80.30
2023-01-13T05:34:33.362Z,80.20
2023-01-13T05:37:01.723Z,80.10
2023-01-13T05:39:50.029Z,80.00
2023-01-13T05:42:36.355Z,80.00
2023-01-13T05:45:05.605Z,79.80
2023-01-13T05:47:34.040Z,79.90
2023-01-13T05:50:03.519Z,79.70
2023-01-13T05:52:32.403Z,79.80
2023-01-13T05:55:00.593Z,79.70
2023-01-13T05:57:30.432Z,79.80
2023-01-13T05:59:59.280Z,79.70
2023-01-13T06:02:28.516Z,79.70
2023-01-13T06:04:57.495Z,79.60
2023-01-13T06:07:25.735Z,79.70
2023-01-13T06:09:54.516Z,79.60
2023-01-13T06:12:22.738Z,79.60
2023-01-13T06:14:51.614Z,79.60
2023-01-13T06:17:20.234Z,79.50
2023-01-13T06:19:49.531Z,79.40
2023-01-13T06:22:23.343Z,79.40
2023-01-13T06:24:56.371Z,79.30
2023-01-13T06:27:25.075Z,79.30
2023-01-13T06:29:53.744Z,79.30
2023-01-13T06:32:39.001Z,79.30
2023-01-13T06:35:12.293Z,79.30
2023-01-13T06:37:43.831Z,79.20
2023-01-13T06:40:15.179Z,79.10
2023-01-13T06:43:02.132Z,79.20
2023-01-13T06:45:32.847Z,79.00
2023-01-13T06:48:01.477Z,79.10
2023-01-13T06:50:31.309Z,79.10
2023-01-13T06:52:59.206Z,79.10
2023-01-13T06:55:28.374Z,79.00
2023-01-13T06:57:58.181Z,78.90
2023-01-13T07:00:28.486Z,78.70
2023-01-13T07:03:16.665Z,78.70
2023-01-13T07:05:53.398Z,78.80
2023-01-13T07:08:22.321Z,78.60
2023-01-13T07:10:53.540Z,78.70
2023-01-13T07:13:40.357Z,78.70
2023-01-13T07:16:09.727Z,78.60
2023-01-13T07:18:38.150Z,78.70
2023-01-13T07:21:12.189Z,78.60
2023-01-13T07:23:42.081Z,78.50
2023-01-13T07:26:12.773Z,78.50
2023-01-13T07:28:41.857Z,78.50
2023-01-13T07:31:21.424Z,78.40
2023-01-13T07:33:52.056Z,78.40
2023-01-13T07:36:20.734Z,78.30
2023-01-13T07:38:50.361Z,78.30
2023-01-13T07:41:37.619Z,78.30
2023-01-13T07:44:06.871Z,78.20
2023-01-13T07:46:34.993Z,78.30
2023-01-13T07:49:03.461Z,78.20
2023-01-13T07:51:31.904Z,78.20
2023-01-13T07:53:59.856Z,78.20
2023-01-13T07:56:29.435Z,78.10
2023-01-13T07:59:00.291Z,78.10
2023-01-13T08:01:32.102Z,78.00
2023-01-13T08:04:00.695Z,78.00
2023-01-13T08:06:31.959Z,78.10
2023-01-13T08:08:59.868Z,78.00
2023-01-13T08:11:30.260Z,78.10
2023-01-13T08:13:58.420Z,78.10
2023-01-13T08:16:27.175Z,78.20
2023-01-13T08:18:55.898Z,78.10
2023-01-13T08:21:24.079Z,77.80
2023-01-13T08:23:52.168Z,78.00
2023-01-13T08:26:20.552Z,78.00
2023-01-13T08:28:49.848Z,77.90
2023-01-13T08:31:20.353Z,77.80
2023-01-13T08:33:48.787Z,77.80
2023-01-13T08:36:18.707Z,77.50
2023-01-13T08:38:46.888Z,77.30
2023-01-13T08:41:38.379Z,77.40
2023-01-13T08:44:09.266Z,77.30
2023-01-13T08:46:38.035Z,77.40
2023-01-13T08:49:05.992Z,77.20
2023-01-13T08:51:34.559Z,76.90
2023-01-13T08:54:02.737Z,76.80
2023-01-13T08:56:34.269Z,76.90
2023-01-13T08:59:05.671Z,76.80
2023-01-13T09:01:34.276Z,77.00
2023-01-13T09:04:04.153Z,77.00
2023-01-13T09:06:32.687Z,76.80
2023-01-13T09:09:02.692Z,77.00
2023-01-13T09:11:52.989Z,77.00
2023-01-13T09:14:21.408Z,77.00
2023-01-13T09:16:50.654Z,76.80
2023-01-13T09:19:18.724Z,76.50
2023-01-13T09:21:46.989Z,76.10
2023-01-13T09:24:15.176Z,76.20
2023-01-13T09:26:43.472Z,75.80
2023-01-13T09:29:13.202Z,75.50
2023-01-13T09:31:44.100Z,75.20
2023-01-13T09:34:37.703Z,75.10
2023-01-13T09:37:07.296Z,75.30
2023-01-13T09:39:36.171Z,75.20
2023-01-13T09:42:35.071Z,75.30
2023-01-13T09:45:09.366Z,75.30
2023-01-13T09:47:56.880Z,75.40
2023-01-13T09:51:10.023Z,75.50
2023-01-13T09:53:44.429Z,75.40
2023-01-13T09:56:12.888Z,75.20
2023-01-13T09:58:43.107Z,75.20
2023-01-13T10:01:44.332Z,74.90
2023-01-13T10:04:15.615Z,74.60
2023-01-13T10:06:48.845Z,74.60
2023-01-13T10:09:34.363Z,74.70
2023-01-13T10:12:21.136Z,74.80
2023-01-13T10:14:58.157Z,74.70
2023-01-13T10:18:13.853Z,74.70
2023-01-13T10:21:22.601Z,74.50
2023-01-13T10:23:58.646Z,74.60
2023-01-13T10:26:29.277Z,74.30
2023-01-13T10:28:57.814Z,74.00
2023-01-13T10:31:27.114Z,73.70
2023-01-13T10:34:07.026Z,73.60
2023-01-13T10:36:35.442Z,73.70
2023-01-13T10:39:14.993Z,74.00
2023-01-13T10:41:44.518Z,73.90
2023-01-13T10:44:19.426Z,74.00
2023-01-13T10:46:57.345Z,73.70
2023-01-13T10:49:33.418Z,73.40
2023-01-13T10:52:02.918Z,73.50
2023-01-13T10:54:31.601Z,73.50
2023-01-13T10:57:27.220Z,73.40
2023-01-13T10:59:55.927Z,73.50
2023-01-13T11:02:30.922Z,73.40
2023-01-13T11:05:00.965Z,73.30
2023-01-13T11:07:34.846Z,72.90
2023-01-13T11:10:02.715Z,73.00
2023-01-13T11:12:35.953Z,73.20
2023-01-13T11:15:10.714Z,73.10
2023-01-13T11:17:46.711Z,73.10
2023-01-13T11:20:32.092Z,73.20
2023-01-13T11:23:23.029Z,73.40
2023-01-13T11:25:55.287Z,73.30
2023-01-13T11:29:11.580Z,73.30
2023-01-13T11:31:54.758Z,73.20
2023-01-13T11:34:45.241Z,73.10
2023-01-13T11:37:31.650Z,73.20
2023-01-13T11:40:13.432Z,73.20
2023-01-13T11:43:11.177Z,73.20
2023-01-13T11:45:45.655Z,73.30
2023-01-13T11:48:17.844Z,73.40
2023-01-13T11:50:56.601Z,73.30
2023-01-13T11:53:53.684Z,73.30
2023-01-13T11:57:02.470Z,73.50
2023-01-13T11:59:38.875Z,73.60
2023-01-13T12:02:38.246Z,73.50
2023-01-13T12:05:08.784Z,73.90
2023-01-13T12:07:54.992Z,74.30
2023-01-13T12:10:49.442Z,74.70
2023-01-13T12:14:16.171Z,75.00
2023-01-13T12:16:49.992Z,75.30
2023-01-13T12:19:30.252Z,75.30
2023-01-13T12:22:27.311Z,75.50
2023-01-13T12:25:14.106Z,75.50
2023-01-13T12:27:49.956Z,75.60
2023-01-13T12:30:29.312Z,75.70
2023-01-13T12:33:03.673Z,75.90
2023-01-13T12:35:41.851Z,76.00
2023-01-13T12:38:27.801Z,76.20
2023-01-13T12:41:08.357Z,76.20
2023-01-13T12:43:59.519Z,76.20
2023-01-13T12:46:27.937Z,76.20
2023-01-13T12:48:57.334Z,76.10
2023-01-13T12:51:33.512Z,76.20
2023-01-13T12:54:02.879Z,76.20
2023-01-13T12:56:39.285Z,76.20
2023-01-13T12:59:21.723Z,76.40
2023-01-13T13:02:09.383Z,76.50
2023-01-13T13:04:50.330Z,76.40
2023-01-13T13:07:31.191Z,76.50
2023-01-13T13:10:26.319Z,76.70
2023-01-13T13:13:17.234Z,76.70
2023-01-13T13:15:47.804Z,76.80
2023-01-13T13:18:19.897Z,76.90
2023-01-13T13:21:09.176Z,77.00
2023-01-13T13:23:48.842Z,77.10
2023-01-13T13:26:36.332Z,77.00
2023-01-13T13:29:33.898Z,77.00
2023-01-13T13:32:06.055Z,77.10
2023-01-13T13:34:58.971Z,76.90
2023-01-13T13:38:05.054Z,77.10
2023-01-13T13:41:01.864Z,77.00
2023-01-13T13:43:49.770Z,77.00
2023-01-13T13:46:48.315Z,77.00
2023-01-13T13:49:22.930Z,76.90
2023-01-13T13:52:01.042Z,76.90
2023-01-13T13:54:29.377Z,77.10
2023-01-13T13:56:59.100Z,77.20
2023-01-13T13:59:34.017Z,77.30
2023-01-13T14:02:04.165Z,77.30
2023-01-13T14:04:36.489Z,77.30
2023-01-13T14:07:18.405Z,77.30
2023-01-13T14:09:51.228Z,77.30
2023-01-13T14:12:27.684Z,77.30
2023-01-13T14:14:59.842Z,77.20
2023-01-13T14:17:30.550Z,77.20
2023-01-13T14:20:05.610Z,77.20
2023-01-13T14:22:33.956Z,77.30
2023-01-13T14:25:02.215Z,77.30
2023-01-13T14:27:31.328Z,77.30
2023-01-13T14:30:01.453Z,77.30
2023-01-13T14:32:35.832Z,77.30
2023-01-13T14:35:08.897Z,77.30
2023-01-13T14:37:42.724Z,77.30
2023-01-13T14:40:39.728Z,77.40
2023-01-13T14:43:21.446Z,77.30
2023-01-13T14:46:02.645Z,77.60
2023-01-13T14:48:36.042Z,77.90
2023-01-13T14:51:13.105Z,77.50
2023-01-13T14:53:47.585Z,76.90
2023-01-13T14:56:42.853Z,76.60
2023-01-13T14:59:33.592Z,76.80
2023-01-13T15:02:02.202Z,76.70
2023-01-13T15:04:39.573Z,76.60
2023-01-13T15:07:24.896Z,76.40
2023-01-13T15:09:56.030Z,76.50
2023-01-13T15:12:39.968Z,76.50
2023-01-13T15:15:22.938Z,76.60
2023-01-13T15:17:51.468Z,76.60
2023-01-13T15:20:23.046Z,76.50
2023-01-13T15:22:51.140Z,76.50
2023-01-13T15:25:20.518Z,76.50
2023-01-13T15:27:51.267Z,76.30
2023-01-13T15:30:22.453Z,76.40
2023-01-13T15:32:50.307Z,76.40
2023-01-13T15:35:21.728Z,76.50
2023-01-13T15:37:50.674Z,76.50
2023-01-13T15:40:20.422Z,76.50
2023-01-13T15:43:08.746Z,76.50
2023-01-13T15:45:56.492Z,76.50
2023-01-13T15:48:26.636Z,76.60
2023-01-13T15:50:55.210Z,76.70
2023-01-13T15:53:23.526Z,76.80
2023-01-13T15:55:54.857Z,76.80
2023-01-13T15:58:28.198Z,76.80
2023-01-13T16:00:56.755Z,76.80
2023-01-13T16:03:25.175Z,76.70
2023-01-13T16:05:59.797Z,76.80
2023-01-13T16:08:27.858Z,76.90
2023-01-13T16:10:56.348Z,76.90
2023-01-13T16:13:24.217Z,76.90
2023-01-13T16:15:52.610Z,76.90
2023-01-13T16:18:24.480Z,77.00
2023-01-13T16:20:55.370Z,76.90
2023-01-13T16:23:23.626Z,76.90
2023-01-13T16:25:51.703Z,76.90
2023-01-13T16:28:25.111Z,76.90
2023-01-13T16:30:53.597Z,77.00
2023-01-13T16:33:21.459Z,77.00
2023-01-13T16:36:10.117Z,76.90
2023-01-13T16:38:37.483Z,77.10
2023-01-13T16:41:06.638Z,77.10
2023-01-13T16:43:35.021Z,77.10
2023-01-13T16:46:03.266Z,77.10
2023-01-13T16:48:31.329Z,77.10
2023-01-13T16:50:59.999Z,77.20
2023-01-13T16:53:28.171Z,77.30
2023-01-13T16:55:56.865Z,77.30
2023-01-13T16:58:25.267Z,77.30
2023-01-13T17:00:53.885Z,77.40
2023-01-13T17:03:22.896Z,77.50
2023-01-13T17:05:51.547Z,77.60
2023-01-13T17:08:19.736Z,77.60
2023-01-13T17:10:51.398Z,77.50
2023-01-13T17:13:19.782Z,77.50
2023-01-13T17:15:48.021Z,77.50
2023-01-13T17:18:17.982Z,77.40
2023-01-13T17:20:46.257Z,77.40
2023-01-13T17:23:15.471Z,77.50
2023-01-13T17:25:43.609Z,77.50
2023-01-13T17:28:14.349Z,77.50
2023-01-13T17:30:44.833Z,77.50
2023-01-13T17:33:12.624Z,77.50
2023-01-13T17:35:42.555Z,77.50
2023-01-13T17:38:11.324Z,77.40
2023-01-13T17:40:39.543Z,77.40
2023-01-13T17:43:10.797Z,77.40
2023-01-13T17:45:42.376Z,77.40
2023-01-13T17:48:10.545Z,77.30
2023-01-13T17:50:40.371Z,77.30
2023-01-13T17:53:09.009Z,77.30
2023-01-13T17:55:37.914Z,77.30
2023-01-13T17:58:05.930Z,77.20
2023-01-13T18:00:34.901Z,77.20
2023-01-13T18:03:03.847Z,77.20
2023-01-13T18:05:34.481Z,77.20
2023-01-13T18:08:02.799Z,77.20
2023-01-13T18:10:33.509Z,77.20
2023-01-13T18:13:05.460Z,77.30
2023-01-13T18:15:33.885Z,77.30
2023-01-13T18:18:02.285Z,77.30
2023-01-13T18:20:49.249Z,77.20
2023-01-13T18:23:40.174Z,77.20
2023-01-13T18:26:39.017Z,77.20
2023-01-13T18:29:10.944Z,77.10
2023-01-13T18:31:42.405Z,77.10
2023-01-13T18:34:10.445Z,77.10
2023-01-13T18:36:39.742Z,77.10
2023-01-13T18:39:08.054Z,77.10
2023-01-13T18:41:55.660Z,77.10
2023-01-13T18:44:23.969Z,77.10
2023-01-13T18:46:55.562Z,77.10
2023-01-13T18:49:24.156Z,77.10
2023-01-13T18:51:53.236Z,77.10
2023-01-13T18:54:23.181Z,77.00
2023-01-13T18:56:52.467Z,77.10
2023-01-13T18:59:22.866Z,77.00
2023-01-13T19:01:52.669Z,76.90
2023-01-13T19:04:22.008Z,76.80
2023-01-13T19:06:52.279Z,76.80
2023-01-13T19:09:25.149Z,76.70
2023-01-13T19:11:58.482Z,76.70
2023-01-13T19:14:38.044Z,76.70
2023-01-13T19:17:11.365Z,76.70
2023-01-13T19:19:45.389Z,76.70
2023-01-13T19:22:20.079Z,76.70
2023-01-13T19:24:48.674Z,76.60
2023-01-13T19:27:19.568Z,76.70
2023-01-13T19:29:51.950Z,76.70
2023-01-13T19:32:22.350Z,76.70
2023-01-13T19:34:51.614Z,76.60
2023-01-13T19:37:20.242Z,76.60
2023-01-13T19:39:49.609Z,76.60
2023-01-13T19:42:37.046Z,76.50
2023-01-13T19:45:24.796Z,76.60
2023-01-13T19:47:57.974Z,76.50
2023-01-13T19:50:25.866Z,76.40
2023-01-13T19:52:55.081Z,76.10
2023-01-13T19:55:26.563Z,75.80
2023-01-13T19:57:58.002Z,75.60
2023-01-13T20:00:26.974Z,75.50
2023-01-13T20:02:57.314Z,75.50
2023-01-13T20:05:28.419Z,75.20
2023-01-13T20:07:57.925Z,75.20
2023-01-13T20:10:28.717Z,75.30
2023-01-13T20:12:58.691Z,75.10
2023-01-13T20:15:30.426Z,75.20
2023-01-13T20:17:59.577Z,75.30
2023-01-13T20:20:27.941Z,75.40
2023-01-13T20:22:59.628Z,75.40
2023-01-13T20:25:32.098Z,75.40
2023-01-13T20:28:03.025Z,75.40
2023-01-13T20:30:31.660Z,75.10
2023-01-13T20:33:00.599Z,75.10
2023-01-13T20:35:30.311Z,75.20
2023-01-13T20:37:59.087Z,75.20
2023-01-13T20:40:27.989Z,75.20
2023-01-13T20:42:58.885Z,75.20
2023-01-13T20:45:28.343Z,75.30
2023-01-13T20:47:58.608Z,75.30
2023-01-13T20:50:27.724Z,75.30
2023-01-13T20:52:55.975Z,75.30
2023-01-13T20:55:25.897Z,75.20
2023-01-13T20:57:54.469Z,75.30
2023-01-13T21:00:24.393Z,75.30
2023-01-13T21:02:53.335Z,75.30
2023-01-13T21:05:22.592Z,75.20
2023-01-13T21:07:51.333Z,75.20
2023-01-13T21:10:20.111Z,75.20
2023-01-13T21:13:07.115Z,75.20
2023-01-13T21:15:35.537Z,75.20
2023-01-13T21:18:22.959Z,75.10
2023-01-13T21:20:51.842Z,75.20
2023-01-13T21:23:20.635Z,75.20
2023-01-13T21:25:48.611Z,75.10
2023-01-13T21:28:18.359Z,75.10
2023-01-13T21:30:47.412Z,75.10
2023-01-13T21:33:16.359Z,75.10
2023-01-13T21:35:44.872Z,75.10
2023-01-13T21:38:13.958Z,75.00
2023-01-13T21:40:41.642Z,75.00
2023-01-13T21:43:31.521Z,75.00
2023-01-13T21:46:31.380Z,74.90
2023-01-13T21:49:00.016Z,74.90
2023-01-13T21:51:29.619Z,74.80
2023-01-13T21:53:57.890Z,74.80
2023-01-13T21:56:26.396Z,74.90
2023-01-13T21:58:57.593Z,74.80
2023-01-13T22:01:25.574Z,74.80
2023-01-13T22:04:12.644Z,74.80
2023-01-13T22:06:40.906Z,74.80
2023-01-13T22:09:09.384Z,74.80
2023-01-13T22:11:37.218Z,74.70
2023-01-13T22:14:06.981Z,74.60
2023-01-13T22:16:42.076Z,74.60
2023-01-13T22:19:11.787Z,74.60
2023-01-13T22:21:40.104Z,74.70
2023-01-13T22:24:08.815Z,74.70
2023-01-13T22:26:36.564Z,74.70
2023-01-13T22:29:04.770Z,74.80
2023-01-13T22:31:32.721Z,74.80
2023-01-13T22:34:01.488Z,74.90
2023-01-13T22:36:29.958Z,74.90
2023-01-13T22:39:00.652Z,74.90
2023-01-13T22:41:28.797Z,74.90
2023-01-13T22:43:57.718Z,74.90
2023-01-13T22:46:25.620Z,75.00
2023-01-13T22:48:56.052Z,75.00
2023-01-13T22:51:24.137Z,75.00
2023-01-13T22:53:52.278Z,75.00
2023-01-13T22:56:22.471Z,75.10
2023-01-13T22:58:58.605Z,75.10
2023-01-13T23:01:28.010Z,75.10
2023-01-13T23:03:56.527Z,75.10
2023-01-13T23:06:27.400Z,75.10
2023-01-13T23:08:55.920Z,75.20
2023-01-13T23:11:27.025Z,75.20
2023-01-13T23:14:05.083Z,75.10
2023-01-13T23:16:34.376Z,75.10
2023-01-13T23:19:02.919Z,75.20
2023-01-13T23:21:32.719Z,75.00
2023-01-13T23:24:00.952Z,75.00
2023-01-13T23:26:29.904Z,75.10
2023-01-13T23:29:06.687Z,75.10
2023-01-13T23:31:34.903Z,75.10
2023-01-13T23:34:03.259Z,75.10
2023-01-13T23:36:31.847Z,75.20
2023-01-13T23:39:00.951Z,75.20
2023-01-13T23:41:29.512Z,75.20
2023-01-13T23:44:00.008Z,75.30
2023-01-13T23:46:29.911Z,75.30
2023-01-13T23:48:58.555Z,75.30
2023-01-13T23:51:27.742Z,75.30
2023-01-13T23:53:56.025Z,75.30
2023-01-13T23:56:26.876Z,75.30
2023-01-13T23:58:55.363Z,75.30
